Racecast

Kole Steele

@Altitude (NV) · 12 · TAH-NEVA · Compare head to head

Athlete ratingi 125.9 2026 TF season
Best race 145.2 XC
Races 193
Seasons 9 2018 — 2026

RankedNation #4323·NV #39·NV D5A #28·NORTHERN 4A #10·Team #11 ?

Rating scale ?
Speed rating — all races

Cross Country

XC speed rating

2025 XC 126.7

Galena (NV) · Grade 12

Date Meet Event Result Place Ratingi Difficultyi PR/SR Flags
2025-11-22 Toka Sticks Golf Course 5000m 16:18.3 184th · 5th on team 126.6 -1.2% ★CR CSR
2025-11-08 Rancho San Rafael 5000m 16:51 18th · 5th on team 128.5 +4.3% ★CR CSR
2025-10-31 Rancho San Rafael 5000m 17:02 8th · 5th on team 127.4 +4.3% CR CSR
2025-10-25 Gibson Ranch Regional Park 5000m 16:28.3 31st · 2nd on team 124.3 -1.7% CSR
2025-10-03 Laverne Gibson Course 5000m 16:13.5 10th · 2nd on team 129.3 +0.7% ★CR SR CSR
2025-09-27 Ponderosa Golf Course 5000m 17:17 18th · 5th on team 124.3 +2.6% SR CSR
2025-09-12 North Tahoe High School 5310m 22:26 18th · 8th on team +17.6% ★PR ★CR SR CSR
2025-08-30 Johnson-Springview Park 4000m 12:43.3 46th · 5th on team 123.5 -3.9% ★PR ★CR SR CSR
2025-08-22 Lampe Park 4023m 13:07 1st · 1st on team 129.5 +3.2% ★PR ★CR SR CSR RSR

2024 XC 123.0

Unattached (TX) · Grade 11

Date Meet Event Result Place Ratingi Difficultyi PR/SR Flags
2024-12-07 John Hunt Cross Country Park 5000m 16:29.4 204th · 123rd on team 123.9 -1.7% ★CR SR CSR
2024-11-23 Toka Sticks Golf Course 5000m 16:31.2 34th · 5th on team 125.7 -1.2% CR SR CSR
2024-11-02 Veterans Memorial Park 5000m 17:17.7 30th · 6th on team 123.2 +2.7% CSR
2024-10-25 Rancho San Rafael 5000m 17:06 10th · 4th on team 126.9 +4.3% SR CSR RSR
2024-10-12 Woodward Park 5000m 18:02.2 147th · 6th on team 115.3 -0.8% ★CR SR CSR RSR

2023 XC 127.6

Galena (NV) · Grade 10

Date Meet Event Result Place Ratingi Difficultyi PR/SR Flags
2023-11-04 Rancho San Rafael 5000m 17:18 8th · 1st on team 127.2 +4.3%
2023-10-27 Rancho San Rafael 5000m 17:04 3rd · 1st on team 127.6 +4.3% CR CSR
2023-10-21 Gibson Ranch Regional Park 5000m 16:05.9 16th · 2nd on team 129.5 -1.7% ★PR ★CR SR CSR
2023-10-13 North Valleys High School 5000m 17:10 6th · 1st on team 124.7 +1.3% ★CR CSR
2023-10-11 Incline Middle School 5000m 17:06 1st · 1st on team 129.1 +5.7% ★CR CSR
2023-09-30 Ponderosa Golf Course 5000m 16:51 5th · 1st on team 125.8 +2.6% ★CR CSR
2023-09-22 Shadow Mountain Park 5000m 17:14 3rd · 1st on team 127.3 +5.2% ★CR CSR
2023-09-19 Galena HS 3200m 9:55.1 1st · 1st on team 126.7 -2.9% ★PR ★CR SR CSR
2023-09-09 Willow Hills Reservoir Course 5000m 16:30.2 2nd · 1st on team 130.8 +2.5% PR ★CR SR CSR RSR
2023-08-25 Lampe Park 4103m 13:24 1st · 1st on team 126.9 +0.8% ★PR ★CR SR CSR RSR

2022 XC 123.9

RenoNV (NV) · Grade 9

Date Meet Event Result Place Ratingi Difficultyi PR/SR Flags
2022-12-03 Mt. San Antonio College 5000m 17:14 4th · 1st on team 128.3 +4.8% ★CR CSR
2022-11-19 Coyote Run Golf Course at Leisure World 5000m 16:56.6 35th · 1st on team 125.7 +0.7% ★CR CSR
2022-11-05 Veterans Memorial Park 5000m 16:53.5 12th · 1st on team 128.6 +2.7% ★CR CSR RSR
2022-10-28 Shadow Mountain Park 5000m 17:20 7th · 1st on team 127.6 +5.2% CR CSR RSR
2022-10-22 Gibson Ranch Regional Park 5000m 16:43.7 16th · 1st on team 125.3 -1.7% PR CR SR CSR
2022-10-14 North Valleys 5000m 18:44 9th · 1st on team 118.7 +5.4% ★CR CSR
2022-10-01 Willow Hills Reservoir Course 5000m 17:40.9 27th · 2nd on team 122.9 +2.5% CR CSR
2022-09-27 Shadow Mountain Park 5000m 18:13 7th · 3rd on team 123.0 +5.2% CR CSR
2022-09-24 Ponderosa Golf Course 5000m 17:14 6th · 1st on team 127.6 +2.6% PR CR SR CSR RSR
2022-09-20 Galena HS 3200m 10:18.8 4th · 3rd on team 119.2 -2.9% PR CR SR CSR
2022-09-17 Roy Hayer Park 5000m 18:03.4 3rd · 3rd on team 121.2 +3.6% PR ★CR SR CSR
2022-09-01 Rancho San Rafael 4100m 14:42 10th · 3rd on team 124.6 +8.3% ★PR ★CR SR CSR RSR
2022-08-19 Lampe Park 4103m 14:37 1st · 1st on team 118.1 +0.8% PR CR SR CSR RSR

2021 XC 127.1

Silver State Striders (NV) · Grade 8

Date Meet Event Result Place Ratingi Difficultyi PR/SR Flags
2021-12-11 Bourbon County Park 4000m 15:01 27th · 2nd on team 140.3 +6.8% PR ★CR SR CSR
2021-11-21 Willow Hills Reservoir Course 2800m 13:01 1st · 1st on team 104.1 +0.7% ★PR ★CR SR CSR
2021-10-14 Kahle Community Park 3000m 16:49.6 1st · 1st on team 86.2 ★CR SR CSR
2021-10-08 Pau-Wa-Lu Middle School 3621m 12:26.8 1st · 1st on team 144.1 +2.3% ★PR ★CR SR CSR
2021-10-01 Ash Canyon 3218m 12:14.4 1st · 1st on team 126.7 +13.9%
2021-09-24 Ash Canyon 3218m 12:01.5 1st · 1st on team 145.2 +13.9% ★PR ★CR ★R SR CSR RSR
2021-09-17 Incline Middle School 2414m 9:34.8 1st · 1st on team 125.8 +3.3% ★CR CSR
2021-09-11 Nevada Union High School 1609m 5:59.1 2nd · 2nd on team 131.7 +4.6% ★PR ★CR SR CSR
2021-09-04 Lagoon Valley Park 2414m 8:03.8 1st · 1st on team 139.7 -2.4% ★PR ★CR SR CSR RSR

2020 XC 129.9

Eagle Valley (CO) · Grade 7

Date Meet Event Result Place Ratingi Difficultyi PR/SR Flags
2021-04-22 Kahle Community Park 3540m 13:21.2 1st · 1st on team 137.2 +7.5% ★PR ★CR SR CSR
2021-04-15 Ash Canyon 3701m 15:36 1st · 1st on team 131.8 +15.7% ★CR CSR
2021-04-08 Sage Ridge School 3701m 13:42.8 1st · 1st on team 140.3 +7.8% ★PR ★CR R SR CSR RSR
2021-03-25 Ash Canyon 2124m 8:04.6 1st · 1st on team 131.4 +5.7% ★PR ★CR SR CSR RSR
2020-11-14 Craig Ranch Park 3540m 15:46 29th · 2nd on team 109.1 ★CR SR CSR RSR

2019 XC 121.3

Silver State Striders (NV) · Grade 6

Date Meet Event Result Place Ratingi Difficultyi PR/SR Flags
2019-12-01 Woodward Park 3000m 12:32.2 28th · 2nd on team 116.2 +1.9% ★PR ★CR SR CSR
2019-10-17 Kahle Community Park 3540m 14:48 8th · 1st on team 122.9 +7.5% PR CR SR CSR
2019-09-28 Haggin Oaks Golf Course 2253m 8:33 55th · 2nd on team 117.7 -3.7% ★PR ★CR SR CSR
2019-09-26 Auburn Ski Club 2896m 12:38.1 11th · 2nd on team 127.0 +17.9% ★PR ★CR SR CSR
2019-09-17 South Tahoe High School 3379m 12:04.8 9th · 2nd on team 135.1 +0.9% ★PR ★CR R SR CSR RSR
2019-09-14 Nevada Union High School 2000m 6:54 7th · 4th on team 108.9 ★PR ★CR SR CSR RSR

2018 XC 116.8

Silver State Striders (NV) · Grade 5

Date Meet Event Result Place Ratingi Difficultyi PR/SR Flags
2018-11-18 Rancho San Rafael 2414m 12:55 46th · 3rd on team 97.4 PR ★CR SR CSR
2018-10-11 Kahle Community Park 3540m 15:44 17th · 1st on team 126.8 +7.5% PR CR SR CSR
2018-09-26 South Tahoe High School 3379m 13:46.8 26th · 2nd on team +0.9% PR CR SR CSR
2018-09-21 Auburn Ski Club 2896m 14:08.4 28th · 2nd on team 127.7 +17.9% PR CR R SR CSR RSR
2018-09-14 North Tahoe HS 3122m 15:57.2 56th · 2nd on team 115.2 +12.6% ★PR ★CR R SR CSR RSR

Track & Field

TF speed rating

2026 TF 122.5

@Altitude (NV) · Grade 12

Date Meet Event Result Place Ratingi Difficultyi PR/SR Flags
2026-06-22 Nike Outdoor Nationals & USATF U20 Championships 3000m 9:13.85 65th · 2nd on team 121.9 -0.7%
2026-06-22 Nike Outdoor Nationals & USATF U20 Championships 5000m 15:22.51 14th · 1st on team 126.9 -0.7% ★PR SR
2026-06-22 Nike Outdoor Nationals & USATF U20 Championships 3200m 9:52.92 65th · 2nd on team 122.2 -0.7%
2026-06-22 Nike Outdoor Nationals & USATF U20 Championships 2miles 9:56.95 65th · 2nd on team 122.2 -0.7% SR
2026-06-06 66th Golden West Invitational 3200m 9:49.98 4th · 2nd on team 123.0 -0.6%
2026-05-15 NIAA 5A State Championships 3200m 9:46.38 7th · 2nd on team 124.5 0.0%
2026-05-08 NIAA Northern 5A Region Championships 400m 51.86 7th · 4th on team +2.6%
2026-05-08 NIAA Northern 5A Region Championships 3200m 9:31.27 3rd · 1st on team 131.1 +2.6% SR
2026-05-02 Northern 5A/3A Trials 3200m 10:10.27 2nd · 2nd on team 122.5 +2.4%
2026-05-02 Northern 5A/3A Trials 400m 51.11 3rd · 3rd on team +2.4% ★PR SR
2026-04-25 2026 Sacramento Meet of Champions 3200m 9:52 20th · 2nd on team 122.3 -0.8%
2026-04-18 Northwest Invite 400m 51.16 4th · 2nd on team +3.0% PR SR
2026-04-18 Northwest Invite 1500m 4:19.06 2nd · 2nd on team 124.3 +3.0% SR
2026-04-14 Reno League Meet (McQueen/Galena) 800m 2:01.23 2nd · 2nd on team 127.5 +2.6% ★PR SR
2026-04-11 Arcadia Invitational 2026 3200m 9:57.04 33rd · 1st on team 120.2 -1.7%
2026-03-20 Dublin Distance Fiesta 3200m 10:01.21 152nd · 4th on team 119.8 -1.4%
2026-03-14 6th Annual Fighting Zebras Invitational 800m 2:11.32 14th · 1st on team 115.3 +0.6%
2026-03-14 6th Annual Fighting Zebras Invitational 1600m 4:33.03 2nd · 1st on team 124.0 +0.6% ★PR SR
2026-03-07 League Meet Douglas, Damonte Ranch, North Valleys 400m 53.4 3rd · 3rd on team +3.4% PR SR
2026-03-05 Douglas League Meet Galena, Manogue, Reno 800m 2:28.07 9th · 3rd on team 104.0 +2.2%
2026-02-19 Simplot Games 3200m 9:33.65 27th · 1st on team 131.5 +1.1% SR RSR
2026-01-23 2026 Spokane HS Invitational 3000m 9:07.62 9th · 1st on team 125.9 -0.6% ★PR SR RSR
2026-01-09 2026 Spokane HS Preview 1mile 4:32.73 11th · 1st on team 123.8 -0.6% SR RSR
2025-12-27 Reno Holiday Invite 800m 2:05.58 7th · 5th on team 121.2 +0.7% PR SR RSR
2025-12-13 RTA Winterfest Indoor Track & Field Meet '25 1600m 4:45.04 3rd · 2nd on team 119.0 +0.7% SR RSR

2025 TF 118.0

Nevada (IA) · Grade 11

Date Meet Event Result Place Ratingi Difficultyi PR/SR Flags
2025-05-23 RunningLane Track Championships 3200m 9:59.95 14th · 1st on team 119.7 -1.3% SR
2025-05-09 NIAA Northern 5A Region Championships 3200m 10:04.98 7th · 3rd on team 122.9 +2.2% SR RSR
2025-04-26 Carson High Varsity Invite 1600m 4:46.58 5th · 2nd on team 120.1 +2.4% SR
2025-04-26 Carson High Varsity Invite 800m 2:09.4 1st · 1st on team 119.5 +2.4% SR
2025-04-19 Northwest Invite 3000m 9:38.78 5th · 3rd on team 120.7 +3.0% SR RSR
2025-04-08 Reno League Meet (Douglas/Galena) 400m 53.61 4th · 4th on team +2.6% PR SR
2025-04-08 Reno League Meet (Douglas/Galena) 800m 2:16.16 9th · 1st on team 113.2 +2.6%
2025-03-28 Reed Reno Running Company Invitational (formerly Rotary) 800m 2:14.75 26th · 4th on team 115.3 +2.6% SR
2025-03-22 Dublin Distance Fiesta 3200m 10:22.41 260th · 3rd on team 115.2 -1.4% SR
2025-03-15 5th Annual Fighting Zebras Invitational 1600m 4:55.1 14th · 2nd on team 115.2 +0.6% SR
2025-03-08 Carson League Meet (Gal & SS) 400m 55.65 7th · 5th on team +2.4% PR SR
2025-03-08 Carson League Meet (Gal & SS) 800m 2:41.15 18th · 4th on team +2.4% SR
2025-02-22 Simplot Games 3200m 10:39.14 92nd · 1st on team 117.6 +1.1% SR RSR

2024 TF 119.4

@Altitude (NV) · Grade 10

Date Meet Event Result Place Ratingi Difficultyi PR/SR Flags
2024-06-15 2024 Nike Outdoor Nationals 3200m 10:00.14 59th · 1st on team 120.0 -0.7%
2024-06-15 2024 Nike Outdoor Nationals 3000m 9:26.94 61st · 1st on team 118.3 -0.7% SR
2024-06-15 2024 Nike Outdoor Nationals 2miles 10:02.73 58th · 1st on team 120.2 -0.7% SR
2024-05-11 NIAA Northern 5A Region Championships 3200m 10:53.77 17th · 4th on team 114.0 +2.4%
2024-04-27 Carson High Varsity Invite 800m 2:14.88 18th · 5th on team 114.4 +2.4%
2024-03-30 Stanford Invitational - HS 3200m 9:59.86 22nd · 1st on team 118.7 -1.8%
2024-03-23 John Barsanti Farmers Insurance Elite 8 Invitational 1600m 4:58.24 9th · 3rd on team 116.7 +3.1%
2024-03-16 Dublin Distance Fiesta 3200m 9:30.12 30th · 1st on team 125.6 -1.4% ★PR SR RSR
2024-03-09 Galena League Meet (Carson, SSHS) 1600m 4:41.21 4th · 1st on team 123.4 +3.4%
2024-03-09 Galena League Meet (Carson, SSHS) 800m 2:12.56 5th · 2nd on team 117.4 +3.4% SR
2024-02-17 Simplot Games 1600m 4:34.33 81st · 1st on team 124.2 +1.1% PR SR RSR

2023 TF 119.2

Reno-NV (NV) · Grade 9

Date Meet Event Result Place Ratingi Difficultyi PR/SR Flags
2023-06-18 2023 Nike Outdoor Nationals 3000m 9:17.39 51st · 1st on team 121.1 -0.7% PR SR
2023-06-18 2023 Nike Outdoor Nationals 2miles 9:55.67 50th · 1st on team 122.4 -0.7% ★PR SR
2023-06-18 2023 Nike Outdoor Nationals 1mile 4:32.41 11th · 1st on team 123.8 -0.7% ★PR SR
2023-06-18 2023 Nike Outdoor Nationals 1500m 4:17.2 14th · 1st on team 121.0 -0.7% ★PR SR
2023-05-20 NIAA 5A State Championship 3200m 10:31.95 7th · 1st on team 116.1 +0.8%
2023-05-13 NIAA Northern 5A Championships 3200m 9:45.86 4th · 1st on team 127.4 +2.8% PR SR RSR
2023-04-29 Big George Invitational 1600m 4:43.19 8th · 3rd on team 121.5 +2.2%
2023-04-22 Sacramento Meet of Champions 3200m 10:20.63 26th · 1st on team 116.6 -0.8%
2023-04-15 Hug Nevada 9 Invite 800m 2:07.49 5th · 1st on team 120.6 +1.9% PR SR
2023-04-08 Galena Invitational 1600m 4:37.38 5th · 2nd on team 125.3 +3.4% PR SR RSR
2023-04-08 Galena Invitational 3200m 10:01.4 2nd · 1st on team 124.7 +3.4%
2023-04-05 Manogue Conference Meet @ Galena; Manogue, Galena, DR 1600m 5:24.27 5th · 3rd on team 107.1 +3.4%
2023-04-05 Manogue Conference Meet @ Galena; Manogue, Galena, DR 800m 2:17.38 8th · 3rd on team 113.5 +3.4%
2023-04-01 Reed Sparks Rotary Invitational 1600m 4:50.54 5th · 1st on team 119.1 +2.6%
2023-03-25 Carson League Meet 400m 56.69 6th · 4th on team +2.4% PR SR
2023-03-24 Bella Vista Bronco Roundup Distance & Pole Vault Carnival 800m 2:12.56 43rd · 4th on team 112.9 -1.1% PR SR
2023-03-24 Bella Vista Bronco Roundup Distance & Pole Vault Carnival 1600m 4:46.84 24th · 2nd on team 116.1 -1.1%
2023-03-18 Dublin Distance Fiesta 3200m 9:50.51 85th · 1st on team 121.3 -1.4% PR SR RSR
2023-03-12 2023 Nike Indoor Nationals 1mile 4:38.84 15th · 1st on team 119.8 -1.7% PR SR
2023-03-12 2023 Nike Indoor Nationals 1500m 4:24.4 20th · 1st on team 116.5 -1.7% PR SR
2023-02-18 Simplot Games 1600m 4:52.72 137th · 1st on team 116.6 +1.1% PR SR RSR
2023-02-18 Simplot Games 1600m 4:44.89 1st · 1st on team 119.8 +1.1% PR SR RSR

2022 TF 131.7

Silver State Striders (NV) · Grade 8

Date Meet Event Result Place Ratingi Difficultyi PR/SR Flags
2022-06-19 2022 Nike Outdoor Nationals 1mile 5:07.75 56th · 2nd on team 129.6 -0.7%
2022-06-19 2022 Nike Outdoor Nationals 2miles 10:21.14 10th · 1st on team 137.1 -0.7% PR SR
2022-06-05 62nd Golden West Invitational 1mile 4:54.86 17th · 1st on team 134.4 -0.6% PR SR
2022-06-05 62nd Golden West Invitational 3200m 10:49.61 1st · 1st on team 129.5 -0.6%
2022-05-18 Tah-Neva League Championships -- Carson HS 800m 2:27.06 3rd · 2nd on team 127.0 +2.4% PR SR
2022-05-18 Tah-Neva League Championships -- Carson HS 3200m 10:58.36 1st · 1st on team 133.8 +2.4%
2022-05-18 Tah-Neva League Championships -- Carson HS 1600m 5:23.82 3rd · 2nd on team 126.6 +2.4%
2022-05-12 Tah-Neva League -- Carson MS 3200m 10:45.3 1st · 1st on team 138.4 +4.8% PR SR RSR
2022-05-12 Tah-Neva League -- Carson MS 800m 2:32.6 2nd · 2nd on team 125.2 +4.8% SR
2022-05-05 Tah-Neva League -- Carson MS 400m 1:07.14 2nd · 2nd on team +4.8%
2022-05-05 Tah-Neva League -- Carson MS 200m 27.34 4th · 2nd on team +4.8%
2022-05-05 Tah-Neva League -- Carson MS 1600m 5:15 1st · 1st on team 133.3 +4.8% SR
2022-04-28 Tah-Neva League -- Carson MS 3200m 11:11 1st · 1st on team 133.8 +4.8% PR SR RSR
2022-04-28 Tah-Neva League -- Carson MS 400m 1:04.14 4th · 2nd on team +4.8% PR SR
2022-04-28 Tah-Neva League -- Carson MS 200m 26.24 1st · 1st on team +4.8% ★PR SR
2022-03-19 5 NORTH INVITATIONAL 1500m 4:37.63 2nd · 2nd on team 133.7 0.0% PR SR RSR
2022-03-12 10 East Invite 1500m 4:46.7 1st · 1st on team 129.9 +0.2% PR SR RSR

2021 TF 123.8

Silver State Striders (NV) · Grade 7

Date Meet Event Result Place Ratingi Difficultyi PR/SR Flags
2021-07-11 Pacific Association Top-5 Meet (non-qualifier) 3000m 10:28.72 1st · 1st on team 131.1 +2.3% PR SR
2021-07-11 Pacific Association Top-5 Meet (non-qualifier) 1500m 4:47.48 1st · 1st on team 132.9 +2.3% PR SR RSR
2021-07-11 Pacific Association Top-5 Meet (non-qualifier) 800m 2:34.72 4th · 2nd on team 121.0 +2.3%
2021-07-04 AAU West Coast Nationals 1500m 4:58.96 3rd · 2nd on team 128.2 +2.6% PR SR
2021-07-04 AAU West Coast Nationals 3000m 10:41.65 2nd · 2nd on team 128.8 +2.6% PR SR
2021-07-04 AAU West Coast Nationals 800m 2:40.05 7th · 2nd on team 117.4 +2.6%
2021-06-20 61st Annual Golden West Invitational 1600m 5:03.04 1st · 1st on team 131.9 -0.6% PR SR RSR
2021-06-20 61st Annual Golden West Invitational 800m 2:29.77 5th · 2nd on team 121.6 -0.6% PR SR
2021-05-26 Tah-Neva League Track & Field Championships 800m 2:32.58 4th · 2nd on team 123.2 +2.4% PR SR
2021-05-26 Tah-Neva League Track & Field Championships 3200m 11:34.79 1st · 1st on team 128.1 +2.4% PR SR RSR
2021-05-26 Tah-Neva League Track & Field Championships 1600m 5:34.23 3rd · 2nd on team 123.4 +2.4% PR SR
2021-05-20 Tah-Neva League Meet - Carson Middle School 3200m 11:59 1st · 1st on team 126.1 +4.8% PR SR RSR
2021-05-20 Tah-Neva League Meet - Carson Middle School 1600m 5:52 2nd · 2nd on team 119.6 +4.8%
2021-05-13 Race results → 3200m 12:25 1st · 1st on team 116.3
2021-05-13 Race results → 800m 2:42 2nd · 2nd on team 113.3 PR SR
2021-05-13 Race results → 1600m 5:41 2nd · 2nd on team 118.0 PR SR
2021-05-06 Tah-Neva League Meet - PWL 3200m 12:25 1st · 1st on team 123.3 +6.0% PR SR RSR
2021-05-06 Tah-Neva League Meet - PWL 1600m 5:42 1st · 1st on team 124.7 +6.0% PR SR RSR

2019 TF 118.3

Silver State Striders (NV) · Grade 5

Date Meet Event Result Place Ratingi Difficultyi PR/SR Flags
2019-07-28 USATF National Junior Olympic Championships 3000m 11:45.33 33rd · 2nd on team 96.8 +3.2%
2019-07-07 USATF Region 16 Junior Olympic Championships 3000m 11:24.23 3rd · 2nd on team 96.6 0.0% PR SR
2019-07-07 USATF Region 16 Junior Olympic Championships 1500m 5:26.34 11th · 2nd on team 94.2 0.0% PR SR
2019-07-07 USATF Region 16 Junior Olympic Championships 800m 2:50.24 17th · 1st on team 87.9 0.0%
2019-06-09 PAC Championships Non-Qualifier 1500m 5:30.07 12th · 1st on team 127.7 -0.4% PR SR
2019-06-09 PAC Championships Non-Qualifier 800m 2:44.54 11th · 2nd on team 127.3 -0.4% PR SR
2019-06-09 PAC Championships Non-Qualifier 3000m 11:36.95 5th · 1st on team 128.6 -0.4% PR SR
2019-05-14 Tah-Neva League Championships 1600m 6:17.98 11th · 1st on team 123.2 +2.4% PR SR
2019-05-14 Tah-Neva League Championships 3200m 13:19.48 3rd · 1st on team 123.7 +2.4% PR SR
2019-05-08 Tah-Neva League Meet -- Carson 3200m 13:51 2nd · 1st on team 121.9 +4.8% PR SR
2019-05-08 Tah-Neva League Meet -- Carson 800m 2:55 3rd · 1st on team 126.0 +4.8%
2019-05-08 Tah-Neva League Meet -- Carson 1600m 6:38 6th · 1st on team 119.7 +4.8%
2019-05-02 Tah-Neva League Meet -- Carson 3200m 15:03 5th · 1st on team 112.2 +4.8%
2019-05-02 Tah-Neva League Meet -- Carson 800m 2:53 5th · 1st on team 127.4 +4.8%
2019-04-25 Tah-Neva League Meet -- Carson 800m 2:52 5th · 1st on team 128.2 +4.8%
2019-04-25 Tah-Neva League Meet -- Carson 3200m 14:53 4th · 1st on team 113.6 +4.8% PR SR
2019-04-25 Tah-Neva League Meet -- Carson 1600m 6:33 11th · 1st on team 121.3 +4.8% PR SR
2019-04-11 Tah-Neva 6th Grade Meet 800m 2:52 2nd · 1st on team 128.8 +4.8%
2019-04-11 Tah-Neva 6th Grade Meet 1600m 6:35 1st · 1st on team 120.8 +4.8% PR SR
2019-04-11 Tah-Neva 6th Grade Meet 200m 32.64 3rd · 1st on team +4.8% PR SR
2019-04-04 Tah-Neva 6th Grade Meet 800m 2:46 2nd · 1st on team 133.2 +4.8% PR R SR RSR
2019-04-04 Tah-Neva 6th Grade Meet 400m 1:16.14 5th · 1st on team +4.8% PR SR
2019-04-04 Tah-Neva 6th Grade Meet 100m 15.04 6th · 1st on team +4.8% ★PR SR
2019-04-04 Tah-Neva 6th Grade Meet 1600m 6:48 6th · 1st on team 116.9 +4.8% PR SR
2019-04-03 Mark Smith "Smitty" Invitational 1500m 5:51.6 4th · 4th on team 125.6 +4.4% PR SR RSR